createdAt,value
2023-05-05T00:00:33.060Z,15.71
2023-05-05T00:03:35.955Z,15.51
2023-05-05T00:06:38.430Z,15.66
2023-05-05T00:09:41.518Z,15.51
2023-05-05T00:12:43.943Z,15.64
2023-05-05T00:15:48.922Z,15.61
2023-05-05T00:18:51.444Z,15.55
2023-05-05T00:21:54.036Z,15.32
2023-05-05T00:24:56.339Z,15.49
2023-05-05T00:27:59.033Z,15.36
2023-05-05T00:31:01.808Z,15.45
2023-05-05T00:34:04.611Z,15.27
2023-05-05T00:37:07.328Z,15.28
2023-05-05T00:40:12.724Z,15.37
2023-05-05T00:43:15.437Z,15.27
2023-05-05T00:46:26.571Z,15.20
2023-05-05T00:49:29.748Z,15.26
2023-05-05T00:52:32.601Z,15.24
2023-05-05T00:55:35.372Z,15.27
2023-05-05T00:58:39.523Z,15.08
2023-05-05T01:01:41.802Z,15.16
2023-05-05T01:04:44.366Z,15.23
2023-05-05T01:08:02.991Z,15.22
2023-05-05T01:11:24.668Z,15.25
2023-05-05T01:15:01.357Z,15.28
2023-05-05T01:18:19.593Z,15.20
2023-05-05T01:21:23.398Z,15.22
2023-05-05T01:24:54.645Z,15.22
2023-05-05T01:28:29.474Z,15.18
2023-05-05T01:31:43.958Z,15.18
2023-05-05T01:35:02.175Z,15.15
2023-05-05T01:38:11.931Z,15.05
2023-05-05T01:41:19.937Z,15.04
2023-05-05T01:44:22.862Z,15.09
2023-05-05T01:47:26.278Z,15.00
2023-05-05T01:50:29.383Z,14.87
2023-05-05T01:53:33.319Z,15.07
2023-05-05T01:56:40.259Z,15.07
2023-05-05T01:59:43.514Z,14.96
2023-05-05T02:02:49.376Z,15.05
2023-05-05T02:05:53.968Z,14.95
2023-05-05T02:08:58.374Z,15.03
2023-05-05T02:12:02.362Z,15.02
2023-05-05T02:15:05.406Z,15.01
2023-05-05T02:18:09.497Z,14.84
2023-05-05T02:21:11.791Z,14.82
2023-05-05T02:24:14.328Z,14.90
2023-05-05T02:27:20.504Z,14.78
2023-05-05T02:30:25.174Z,14.87
2023-05-05T02:33:32.976Z,14.85
2023-05-05T02:36:39.553Z,14.77
2023-05-05T02:39:58.413Z,14.65
2023-05-05T02:43:06.533Z,14.75
2023-05-05T02:46:09.416Z,14.61
2023-05-05T02:49:12.655Z,14.72
2023-05-05T02:52:15.458Z,14.73
2023-05-05T02:55:18.827Z,14.69
2023-05-05T02:58:29.815Z,14.70
2023-05-05T03:02:11.655Z,14.58
2023-05-05T03:05:21.258Z,14.70
2023-05-05T03:08:42.785Z,14.65
2023-05-05T03:11:54.765Z,14.55
2023-05-05T03:14:59.030Z,14.68
2023-05-05T03:18:04.466Z,14.63
2023-05-05T03:21:08.922Z,14.52
2023-05-05T03:24:16.185Z,14.49
2023-05-05T03:27:20.489Z,14.44
2023-05-05T03:30:22.885Z,14.36
2023-05-05T03:33:26.351Z,14.34
2023-05-05T03:36:30.680Z,14.25
2023-05-05T03:39:33.610Z,14.28
2023-05-05T03:42:36.192Z,14.27
2023-05-05T03:45:39.179Z,14.22
2023-05-05T03:48:42.197Z,14.30
2023-05-05T03:51:44.972Z,14.17
2023-05-05T03:54:47.414Z,14.32
2023-05-05T03:57:50.081Z,14.27
2023-05-05T04:00:52.616Z,14.28
2023-05-05T04:03:56.448Z,14.25
2023-05-05T04:06:58.894Z,14.33
2023-05-05T04:10:01.684Z,14.25
2023-05-05T04:13:04.303Z,14.16
2023-05-05T04:16:08.819Z,14.19
2023-05-05T04:19:13.155Z,14.40
2023-05-05T04:22:16.119Z,14.36
2023-05-05T04:25:18.701Z,14.35
2023-05-05T04:28:22.235Z,14.41
2023-05-05T04:31:24.846Z,14.36
2023-05-05T04:34:27.557Z,14.46
2023-05-05T04:37:30.271Z,14.39
2023-05-05T04:40:33.302Z,14.50
2023-05-05T04:43:35.877Z,14.51
2023-05-05T04:46:38.525Z,14.47
2023-05-05T04:49:41.030Z,14.39
2023-05-05T04:52:43.748Z,14.17
2023-05-05T04:55:46.124Z,14.18
2023-05-05T04:58:50.124Z,14.35
2023-05-05T05:01:52.661Z,14.30
2023-05-05T05:04:55.265Z,14.29
2023-05-05T05:07:57.984Z,14.36
2023-05-05T05:11:00.802Z,14.34
2023-05-05T05:14:03.164Z,14.24
2023-05-05T05:17:08.775Z,14.19
2023-05-05T05:20:11.650Z,14.35
2023-05-05T05:23:17.017Z,14.21
2023-05-05T05:26:19.556Z,14.35
2023-05-05T05:29:22.742Z,14.31
2023-05-05T05:32:25.119Z,14.23
2023-05-05T05:35:28.084Z,14.14
2023-05-05T05:38:30.415Z,14.32
2023-05-05T05:41:33.507Z,14.29
2023-05-05T05:44:35.849Z,14.60
2023-05-05T05:47:38.608Z,14.65
2023-05-05T05:50:41.028Z,14.70
2023-05-05T05:53:44.405Z,14.49
2023-05-05T05:56:46.913Z,14.83
2023-05-05T05:59:49.722Z,14.82
2023-05-05T06:02:52.473Z,14.70
2023-05-05T06:05:56.805Z,14.92
2023-05-05T06:08:59.604Z,15.03
2023-05-05T06:12:03.767Z,15.13
2023-05-05T06:15:07.108Z,15.07
2023-05-05T06:18:09.950Z,15.19
2023-05-05T06:21:13.368Z,15.27
2023-05-05T06:24:16.381Z,15.40
2023-05-05T06:27:18.734Z,15.61
2023-05-05T06:30:21.604Z,15.73
2023-05-05T06:33:23.891Z,15.84
2023-05-05T06:36:26.485Z,15.99
2023-05-05T06:39:28.859Z,15.92
2023-05-05T06:42:32.229Z,16.16
2023-05-05T06:45:34.827Z,16.19
2023-05-05T06:48:37.546Z,16.28
2023-05-05T06:51:42.158Z,16.26
2023-05-05T06:54:45.599Z,16.44
2023-05-05T06:57:47.932Z,16.49
2023-05-05T07:00:50.609Z,16.78
2023-05-05T07:03:53.268Z,16.92
2023-05-05T07:06:56.640Z,17.03
2023-05-05T07:09:59.000Z,17.16
2023-05-05T07:13:01.819Z,17.25
2023-05-05T07:16:04.842Z,17.51
2023-05-05T07:19:10.090Z,17.64
2023-05-05T07:22:12.525Z,17.72
2023-05-05T07:25:15.144Z,17.93
2023-05-05T07:28:18.032Z,18.05
2023-05-05T07:31:22.042Z,18.00
2023-05-05T07:34:24.479Z,18.19
2023-05-05T07:37:27.132Z,18.25
2023-05-05T07:40:35.471Z,18.42
2023-05-05T07:43:39.611Z,18.55
2023-05-05T07:46:42.116Z,18.79
2023-05-05T07:49:44.765Z,18.82
2023-05-05T07:52:51.886Z,18.99
2023-05-05T07:56:02.000Z,18.98
2023-05-05T07:59:22.774Z,19.20
2023-05-05T08:02:25.671Z,19.39
2023-05-05T08:05:28.333Z,19.63
2023-05-05T08:08:30.650Z,19.80
2023-05-05T08:11:33.279Z,19.75
2023-05-05T08:14:36.333Z,20.09
2023-05-05T08:17:50.604Z,20.50
2023-05-05T08:20:53.525Z,20.93
2023-05-05T08:23:56.208Z,21.31
2023-05-05T08:27:01.653Z,20.98
2023-05-05T08:30:04.813Z,21.37
2023-05-05T08:33:07.227Z,21.55
2023-05-05T08:36:09.994Z,22.04
2023-05-05T08:39:14.944Z,22.57
2023-05-05T08:42:32.816Z,22.12
2023-05-05T08:45:42.173Z,22.36
2023-05-05T08:48:46.038Z,22.16
2023-05-05T08:51:48.889Z,22.33
2023-05-05T08:54:57.269Z,22.79
2023-05-05T08:58:06.198Z,23.20
2023-05-05T09:01:10.305Z,23.36
2023-05-05T09:04:13.900Z,23.42
2023-05-05T09:07:16.767Z,23.61
2023-05-05T09:10:23.165Z,23.79
2023-05-05T09:13:30.397Z,24.42
2023-05-05T09:16:35.171Z,25.13
2023-05-05T09:20:14.227Z,25.24
2023-05-05T09:23:19.733Z,25.84
2023-05-05T09:26:26.083Z,26.43
2023-05-05T09:29:28.975Z,26.87
2023-05-05T09:32:45.939Z,27.18
2023-05-05T09:35:56.120Z,26.46
2023-05-05T09:39:06.257Z,26.49
2023-05-05T09:42:18.851Z,26.58
2023-05-05T09:45:27.482Z,26.12
2023-05-05T09:48:32.395Z,26.57
2023-05-05T09:51:37.438Z,26.82
2023-05-05T09:54:44.630Z,27.27
2023-05-05T09:57:47.641Z,26.97
2023-05-05T10:00:51.152Z,27.09
2023-05-05T10:03:55.225Z,27.55
2023-05-05T10:07:03.467Z,27.88
2023-05-05T10:10:08.346Z,27.56
2023-05-05T10:13:12.049Z,27.84
2023-05-05T10:16:15.457Z,27.94
2023-05-05T10:19:24.828Z,28.10
2023-05-05T10:22:32.849Z,28.02
2023-05-05T10:25:42.167Z,28.23
2023-05-05T10:28:50.958Z,28.78
2023-05-05T10:31:54.449Z,29.03
2023-05-05T10:35:04.030Z,29.11
2023-05-05T10:38:12.095Z,28.82
2023-05-05T10:41:16.123Z,28.54
2023-05-05T10:44:19.439Z,28.60
2023-05-05T10:47:24.029Z,28.01
2023-05-05T10:50:41.729Z,27.07
2023-05-05T10:54:06.141Z,26.59
2023-05-05T10:57:10.904Z,26.05
2023-05-05T11:00:39.669Z,26.48
2023-05-05T11:03:42.411Z,25.99
2023-05-05T11:07:13.465Z,25.89
2023-05-05T11:10:20.662Z,26.27
2023-05-05T11:13:23.827Z,26.70
2023-05-05T11:16:52.876Z,26.93
2023-05-05T11:19:55.767Z,27.19
2023-05-05T11:23:04.195Z,26.68
2023-05-05T11:26:07.349Z,26.87
2023-05-05T11:29:09.845Z,26.94
2023-05-05T11:32:14.366Z,27.19
2023-05-05T11:35:16.923Z,27.12
2023-05-05T11:38:24.559Z,26.97
2023-05-05T11:41:32.701Z,27.08
2023-05-05T11:44:46.157Z,27.11
2023-05-05T11:47:48.781Z,27.18
2023-05-05T11:50:54.862Z,27.36
2023-05-05T11:53:59.156Z,27.46
2023-05-05T11:57:05.631Z,27.45
2023-05-05T12:00:11.953Z,27.34
2023-05-05T12:03:15.221Z,27.35
2023-05-05T12:06:28.553Z,27.10
2023-05-05T12:09:31.767Z,27.26
2023-05-05T12:12:38.531Z,26.53
2023-05-05T12:15:43.653Z,26.90
2023-05-05T12:18:48.177Z,26.64
2023-05-05T12:21:56.089Z,27.16
2023-05-05T12:25:01.580Z,27.26
2023-05-05T12:28:14.571Z,27.16
2023-05-05T12:31:19.640Z,27.17
2023-05-05T12:34:27.212Z,26.97
2023-05-05T12:37:31.538Z,26.96
2023-05-05T12:40:53.890Z,26.54
2023-05-05T12:43:57.468Z,26.98
2023-05-05T12:47:00.545Z,26.75
2023-05-05T12:50:03.268Z,26.75
2023-05-05T12:53:07.139Z,26.64
2023-05-05T12:56:32.187Z,26.43
2023-05-05T12:59:34.842Z,25.80
2023-05-05T13:02:37.231Z,25.33
2023-05-05T13:05:41.187Z,25.49
2023-05-05T13:08:43.856Z,25.78
2023-05-05T13:11:46.517Z,25.89
2023-05-05T13:14:48.925Z,26.11
2023-05-05T13:17:58.260Z,26.11
2023-05-05T13:21:00.754Z,25.38
2023-05-05T13:27:09.220Z,25.32
2023-05-05T13:30:12.590Z,24.86
2023-05-05T13:33:14.962Z,24.65
2023-05-05T13:36:17.608Z,24.57
2023-05-05T13:39:20.034Z,24.46
2023-05-05T13:42:22.654Z,24.43
2023-05-05T13:45:25.140Z,24.39
2023-05-05T13:48:27.832Z,24.32
2023-05-05T13:51:30.220Z,24.20
2023-05-05T13:54:33.277Z,24.30
2023-05-05T13:57:35.724Z,24.25
2023-05-05T14:00:38.746Z,24.30
2023-05-05T14:03:41.469Z,23.19
2023-05-05T14:06:43.871Z,22.02
2023-05-05T14:09:46.563Z,21.18
2023-05-05T14:12:49.019Z,20.65
2023-05-05T14:15:52.805Z,20.20
2023-05-05T14:18:55.090Z,20.06
2023-05-05T14:21:57.678Z,20.21
2023-05-05T14:25:00.054Z,20.15
2023-05-05T14:28:03.772Z,20.42
2023-05-05T14:31:06.564Z,20.63
2023-05-05T14:34:09.329Z,20.93
2023-05-05T14:37:11.907Z,20.97
2023-05-05T14:40:14.618Z,21.47
2023-05-05T14:43:17.098Z,21.38
2023-05-05T14:46:19.938Z,21.78
2023-05-05T14:49:22.379Z,21.95
2023-05-05T14:52:25.018Z,21.98
2023-05-05T14:55:27.616Z,22.09
2023-05-05T14:58:31.188Z,22.21
2023-05-05T15:01:33.607Z,22.43
2023-05-05T15:04:36.343Z,22.43
2023-05-05T15:07:40.054Z,22.52
2023-05-05T15:10:42.757Z,22.46
2023-05-05T15:13:45.196Z,22.34
2023-05-05T15:16:47.868Z,22.45
2023-05-05T15:19:50.314Z,22.40
2023-05-05T15:22:52.968Z,22.62
2023-05-05T15:25:55.376Z,22.59
2023-05-05T15:28:58.023Z,22.60
2023-05-05T15:32:00.615Z,22.55
2023-05-05T15:35:03.376Z,22.46
2023-05-05T15:38:05.831Z,22.63
2023-05-05T15:41:08.641Z,22.64
2023-05-05T15:44:14.220Z,22.68
2023-05-05T15:47:17.782Z,22.63
2023-05-05T15:50:20.335Z,22.54
2023-05-05T15:53:23.152Z,22.48
2023-05-05T15:56:27.374Z,22.44
2023-05-05T15:59:30.151Z,22.37
2023-05-05T16:02:32.673Z,22.22
2023-05-05T16:05:35.588Z,22.22
2023-05-05T16:08:38.362Z,22.25
2023-05-05T16:11:41.021Z,22.20
2023-05-05T16:14:43.355Z,22.22
2023-05-05T16:17:46.093Z,22.22
2023-05-05T16:20:48.562Z,22.11
2023-05-05T16:23:51.453Z,22.18
2023-05-05T16:26:53.879Z,21.97
2023-05-05T16:29:58.509Z,21.97
2023-05-05T16:33:02.170Z,22.05
2023-05-05T16:36:05.411Z,22.03
2023-05-05T16:39:07.893Z,21.96
2023-05-05T16:42:10.913Z,21.80
2023-05-05T16:45:13.386Z,21.88
2023-05-05T16:48:18.617Z,21.81
2023-05-05T16:51:21.079Z,21.78
2023-05-05T16:54:23.765Z,21.35
2023-05-05T16:57:26.178Z,21.70
2023-05-05T17:00:29.114Z,21.64
2023-05-05T17:03:32.173Z,21.54
2023-05-05T17:06:34.992Z,21.47
2023-05-05T17:09:37.835Z,21.52
2023-05-05T17:12:42.053Z,21.47
2023-05-05T17:15:44.560Z,21.47
2023-05-05T17:18:47.351Z,21.38
2023-05-05T17:21:54.201Z,21.29
2023-05-05T17:24:57.112Z,21.35
2023-05-05T17:28:00.585Z,21.34
2023-05-05T17:31:03.378Z,21.29
2023-05-05T17:34:19.328Z,21.27
2023-05-05T17:37:22.171Z,21.20
2023-05-05T17:40:24.708Z,21.13
2023-05-05T17:43:27.518Z,20.58
2023-05-05T17:46:31.790Z,20.97
2023-05-05T17:49:34.967Z,20.95
2023-05-05T17:52:37.398Z,20.94
2023-05-05T17:55:44.793Z,20.79
2023-05-05T17:58:49.446Z,20.85
2023-05-05T18:01:52.188Z,20.82
2023-05-05T18:04:55.013Z,20.75
2023-05-05T18:07:57.521Z,20.72
2023-05-05T18:11:00.413Z,20.69
2023-05-05T18:14:02.923Z,20.63
2023-05-05T18:17:05.858Z,20.58
2023-05-05T18:20:08.996Z,20.52
2023-05-05T18:23:11.730Z,20.51
2023-05-05T18:26:16.562Z,20.47
2023-05-05T18:29:22.506Z,20.43
2023-05-05T18:32:26.839Z,20.39
2023-05-05T18:35:32.492Z,20.35
2023-05-05T18:38:37.544Z,20.30
2023-05-05T18:41:54.558Z,20.30
2023-05-05T18:45:46.150Z,20.25
2023-05-05T18:49:31.138Z,20.24
2023-05-05T18:52:49.657Z,19.80
2023-05-05T18:56:01.446Z,20.15
2023-05-05T18:59:19.633Z,19.72
2023-05-05T19:02:43.090Z,20.03
2023-05-05T19:05:47.440Z,19.98
2023-05-05T19:08:50.241Z,19.91
2023-05-05T19:11:54.121Z,19.88
2023-05-05T19:14:59.098Z,19.79
2023-05-05T19:18:02.709Z,19.75
2023-05-05T19:21:11.226Z,19.59
2023-05-05T19:24:15.346Z,19.56
2023-05-05T19:27:18.027Z,19.63
2023-05-05T19:30:21.966Z,19.61
2023-05-05T19:33:24.174Z,19.55
2023-05-05T19:36:27.757Z,19.49
2023-05-05T19:39:30.224Z,19.43
2023-05-05T19:42:32.908Z,19.25
2023-05-05T19:45:35.589Z,19.33
2023-05-05T19:48:38.292Z,19.29
2023-05-05T19:51:42.031Z,19.13
2023-05-05T19:54:44.716Z,19.22
2023-05-05T19:57:47.209Z,19.18
2023-05-05T20:00:49.865Z,19.16
2023-05-05T20:03:55.797Z,18.97
2023-05-05T20:06:58.302Z,19.10
2023-05-05T20:10:01.056Z,18.87
2023-05-05T20:13:03.560Z,18.88
2023-05-05T20:16:07.522Z,19.01
2023-05-05T20:19:10.045Z,18.80
2023-05-05T20:22:12.763Z,18.92
2023-05-05T20:25:18.537Z,18.91
2023-05-05T20:28:23.904Z,18.87
2023-05-05T20:31:26.349Z,18.85
2023-05-05T20:34:29.104Z,18.75
2023-05-05T20:37:33.904Z,18.78
2023-05-05T20:40:37.105Z,18.74
2023-05-05T20:43:41.710Z,18.70
2023-05-05T20:46:44.478Z,18.55
2023-05-05T20:49:46.923Z,18.65
2023-05-05T20:52:49.683Z,18.62
2023-05-05T20:55:52.005Z,18.47
2023-05-05T20:58:55.045Z,18.56
2023-05-05T21:01:58.257Z,18.53
2023-05-05T21:05:05.593Z,18.46
2023-05-05T21:08:11.101Z,18.44
2023-05-05T21:11:15.204Z,18.19
2023-05-05T21:14:17.587Z,18.42
2023-05-05T21:17:20.489Z,18.36
2023-05-05T21:20:23.229Z,18.39
2023-05-05T21:23:26.189Z,18.34
2023-05-05T21:26:28.727Z,17.99
2023-05-05T21:29:37.652Z,18.26
2023-05-05T21:32:40.462Z,18.16
2023-05-05T21:35:43.526Z,17.60
2023-05-05T21:38:46.022Z,18.13
2023-05-05T21:41:48.659Z,18.13
2023-05-05T21:44:51.022Z,17.98
2023-05-05T21:47:53.719Z,17.94
2023-05-05T21:50:56.074Z,17.91
2023-05-05T21:53:58.892Z,17.85
2023-05-05T21:57:01.584Z,17.95
2023-05-05T22:00:05.981Z,17.81
2023-05-05T22:03:14.625Z,17.87
2023-05-05T22:06:17.446Z,17.87
2023-05-05T22:09:19.736Z,17.72
2023-05-05T22:12:22.509Z,17.83
2023-05-05T22:15:29.977Z,17.74
2023-05-05T22:18:36.113Z,17.63
2023-05-05T22:21:38.453Z,17.73
2023-05-05T22:24:41.582Z,17.58
2023-05-05T22:27:43.943Z,17.50
2023-05-05T22:30:46.748Z,17.57
2023-05-05T22:33:50.537Z,17.55
2023-05-05T22:36:53.121Z,17.52
2023-05-05T22:39:55.531Z,17.37
2023-05-05T22:42:58.849Z,17.33
2023-05-05T22:46:01.220Z,17.32
2023-05-05T22:49:03.889Z,17.35
2023-05-05T22:52:06.356Z,17.22
2023-05-05T22:55:09.351Z,17.17
2023-05-05T22:58:11.944Z,17.17
2023-05-05T23:01:14.576Z,17.27
2023-05-05T23:04:17.085Z,17.19
2023-05-05T23:07:19.881Z,17.16
2023-05-05T23:10:22.232Z,17.02
2023-05-05T23:13:25.064Z,17.11
2023-05-05T23:16:27.490Z,16.97
2023-05-05T23:19:32.412Z,17.09
2023-05-05T23:22:34.748Z,17.03
2023-05-05T23:25:37.420Z,17.06
2023-05-05T23:28:39.746Z,16.85
2023-05-05T23:31:42.538Z,16.89
2023-05-05T23:34:44.990Z,16.78
2023-05-05T23:37:47.683Z,16.81
2023-05-05T23:40:49.972Z,16.79
2023-05-05T23:43:52.643Z,16.71
2023-05-05T23:46:55.166Z,16.50
2023-05-05T23:49:58.153Z,16.60
2023-05-05T23:53:00.615Z,16.55
2023-05-05T23:56:03.361Z,16.39
2023-05-05T23:59:06.247Z,16.25
